sensor_id;sensor_type;location;lat;lon;timestamp;pressure;altitude;pressure_sealevel;temperature;humidity
78839;BME280;68405;47.190;27.558;2023-03-05T15:04:00;99054.64;;;7.21;30.01
78839;BME280;68405;47.190;27.558;2023-03-05T15:06:34;99051.83;;;6.81;30.41
78839;BME280;68405;47.190;27.558;2023-03-05T15:09:09;99054.29;;;6.46;30.88
78839;BME280;68405;47.190;27.558;2023-03-05T15:11:41;99049.91;;;6.14;31.19
78839;BME280;68405;47.190;27.558;2023-03-05T15:14:13;99050.34;;;5.74;31.79
78839;BME280;68405;47.190;27.558;2023-03-05T15:16:45;99047.82;;;5.40;31.89
78839;BME280;68405;47.190;27.558;2023-03-05T15:19:17;99047.92;;;5.16;32.40
78839;BME280;68405;47.190;27.558;2023-03-05T15:21:49;99047.25;;;4.96;32.69
78839;BME280;68405;47.190;27.558;2023-03-05T15:24:21;99050.66;;;4.83;33.05
78839;BME280;68405;47.190;27.558;2023-03-05T15:26:52;99048.95;;;4.68;33.20
78839;BME280;68405;47.190;27.558;2023-03-05T15:29:24;99051.55;;;4.52;33.81
78839;BME280;68405;47.190;27.558;2023-03-05T15:31:56;99052.30;;;4.42;33.96
78839;BME280;68405;47.190;27.558;2023-03-05T15:34:27;99047.86;;;4.33;34.57
78839;BME280;68405;47.190;27.558;2023-03-05T15:36:59;99045.30;;;4.25;34.70
78839;BME280;68405;47.190;27.558;2023-03-05T15:39:30;99045.50;;;4.16;34.93
78839;BME280;68405;47.190;27.558;2023-03-05T15:42:02;99047.32;;;4.03;35.15
78839;BME280;68405;47.190;27.558;2023-03-05T15:44:34;99048.92;;;3.92;34.99
78839;BME280;68405;47.190;27.558;2023-03-05T15:47:08;99050.63;;;3.84;35.57
78839;BME280;68405;47.190;27.558;2023-03-05T15:49:40;99052.65;;;3.78;35.60
78839;BME280;68405;47.190;27.558;2023-03-05T15:52:11;99054.27;;;3.73;35.83
78839;BME280;68405;47.190;27.558;2023-03-05T15:54:44;99056.02;;;3.72;35.37
78839;BME280;68405;47.190;27.558;2023-03-05T15:57:17;99054.71;;;3.70;35.73
78839;BME280;68405;47.190;27.558;2023-03-05T15:59:50;99049.58;;;3.68;36.53
78839;BME280;68405;47.190;27.558;2023-03-05T16:02:23;99049.95;;;3.67;35.41
78839;BME280;68405;47.190;27.558;2023-03-05T16:04:55;99052.30;;;3.61;36.09
78839;BME280;68405;47.190;27.558;2023-03-05T16:07:30;99051.61;;;3.51;36.65
78839;BME280;68405;47.190;27.558;2023-03-05T16:10:03;99051.58;;;3.45;36.69
78839;BME280;68405;47.190;27.558;2023-03-05T16:12:37;99055.61;;;3.40;36.90
78839;BME280;68405;47.190;27.558;2023-03-05T16:15:14;99060.35;;;3.34;37.22
78839;BME280;68405;47.190;27.558;2023-03-05T16:17:49;99060.95;;;3.30;37.35
78839;BME280;68405;47.190;27.558;2023-03-05T16:20:23;99058.45;;;3.26;37.04
78839;BME280;68405;47.190;27.558;2023-03-05T16:22:55;99054.92;;;3.21;37.37
78839;BME280;68405;47.190;27.558;2023-03-05T16:25:27;99056.36;;;3.17;37.53
78839;BME280;68405;47.190;27.558;2023-03-05T16:27:59;99054.64;;;3.17;37.24
78839;BME280;68405;47.190;27.558;2023-03-05T16:30:31;99052.97;;;3.15;37.58
78839;BME280;68405;47.190;27.558;2023-03-05T16:33:03;99056.23;;;3.15;38.42
78839;BME280;68405;47.190;27.558;2023-03-05T16:35:35;99058.65;;;3.14;37.80
78839;BME280;68405;47.190;27.558;2023-03-05T16:38:06;99054.93;;;3.11;37.96
78839;BME280;68405;47.190;27.558;2023-03-05T16:40:38;99052.05;;;3.09;38.11
78839;BME280;68405;47.190;27.558;2023-03-05T16:43:10;99051.61;;;3.04;38.46
78839;BME280;68405;47.190;27.558;2023-03-05T16:45:42;99051.16;;;3.00;38.58
78839;BME280;68405;47.190;27.558;2023-03-05T16:48:14;99049.67;;;2.97;39.09
78839;BME280;68405;47.190;27.558;2023-03-05T16:50:46;99048.23;;;2.91;39.18
78839;BME280;68405;47.190;27.558;2023-03-05T16:53:17;99050.05;;;2.85;39.35
78839;BME280;68405;47.190;27.558;2023-03-05T16:55:49;99052.13;;;2.84;39.19
78839;BME280;68405;47.190;27.558;2023-03-05T16:58:21;99054.08;;;2.80;39.44
78839;BME280;68405;47.190;27.558;2023-03-05T17:00:53;99054.02;;;2.73;40.23
78839;BME280;68405;47.190;27.558;2023-03-05T17:03:25;99055.33;;;2.66;39.77
78839;BME280;68405;47.190;27.558;2023-03-05T17:05:57;99057.41;;;2.64;40.12
78839;BME280;68405;47.190;27.558;2023-03-05T17:08:29;99059.33;;;2.62;40.18
78839;BME280;68405;47.190;27.558;2023-03-05T17:11:01;99054.59;;;2.58;40.02
78839;BME280;68405;47.190;27.558;2023-03-05T17:13:32;99051.35;;;2.57;40.36
78839;BME280;68405;47.190;27.558;2023-03-05T17:16:06;99047.23;;;2.56;40.83
78839;BME280;68405;47.190;27.558;2023-03-05T17:18:38;99044.68;;;2.56;40.63
78839;BME280;68405;47.190;27.558;2023-03-05T17:21:10;99045.34;;;2.58;40.64
78839;BME280;68405;47.190;27.558;2023-03-05T17:23:43;99045.84;;;2.59;40.54
78839;BME280;68405;47.190;27.558;2023-03-05T17:26:15;99044.11;;;2.60;40.68
78839;BME280;68405;47.190;27.558;2023-03-05T17:28:47;99041.98;;;2.64;40.31
78839;BME280;68405;47.190;27.558;2023-03-05T17:31:19;99041.98;;;2.64;40.16
78839;BME280;68405;47.190;27.558;2023-03-05T17:33:54;99040.41;;;2.66;40.75
78839;BME280;68405;47.190;27.558;2023-03-05T17:36:24;99034.77;;;2.66;40.92
78839;BME280;68405;47.190;27.558;2023-03-05T17:38:56;99039.80;;;2.61;40.64
78839;BME280;68405;47.190;27.558;2023-03-05T17:41:28;99043.08;;;2.61;41.04
78839;BME280;68405;47.190;27.558;2023-03-05T17:44:00;99036.70;;;2.62;41.12
78839;BME280;68405;47.190;27.558;2023-03-05T17:46:31;99036.49;;;2.65;41.18
78839;BME280;68405;47.190;27.558;2023-03-05T17:49:04;99032.90;;;2.64;40.94
78839;BME280;68405;47.190;27.558;2023-03-05T17:51:36;99033.77;;;2.64;41.23
78839;BME280;68405;47.190;27.558;2023-03-05T17:54:08;99037.86;;;2.65;41.40
78839;BME280;68405;47.190;27.558;2023-03-05T17:56:40;99036.38;;;2.61;41.73
78839;BME280;68405;47.190;27.558;2023-03-05T17:59:12;99039.04;;;2.54;42.02
78839;BME280;68405;47.190;27.558;2023-03-05T18:01:44;99043.60;;;2.48;41.77
78839;BME280;68405;47.190;27.558;2023-03-05T18:04:16;99036.49;;;2.42;42.29
78839;BME280;68405;47.190;27.558;2023-03-05T18:06:48;99037.90;;;2.39;42.16
78839;BME280;68405;47.190;27.558;2023-03-05T18:09:20;99035.35;;;2.38;42.08
78839;BME280;68405;47.190;27.558;2023-03-05T18:11:52;99037.77;;;2.37;42.14
78839;BME280;68405;47.190;27.558;2023-03-05T18:14:26;99032.83;;;2.35;42.32
78839;BME280;68405;47.190;27.558;2023-03-05T18:16:57;99032.65;;;2.35;42.34
78839;BME280;68405;47.190;27.558;2023-03-05T18:19:29;99030.06;;;2.36;42.50
78839;BME280;68405;47.190;27.558;2023-03-05T18:22:01;99025.80;;;2.35;42.89
78839;BME280;68405;47.190;27.558;2023-03-05T18:24:33;99025.81;;;2.34;43.01
78839;BME280;68405;47.190;27.558;2023-03-05T18:27:05;99024.44;;;2.35;42.62
78839;BME280;68405;47.190;27.558;2023-03-05T18:29:37;99023.38;;;2.37;43.04
78839;BME280;68405;47.190;27.558;2023-03-05T18:32:08;99032.05;;;2.40;43.01
78839;BME280;68405;47.190;27.558;2023-03-05T18:34:40;99032.20;;;2.42;42.83
78839;BME280;68405;47.190;27.558;2023-03-05T18:37:12;99034.07;;;2.44;43.11
78839;BME280;68405;47.190;27.558;2023-03-05T18:39:44;99034.05;;;2.45;43.34
78839;BME280;68405;47.190;27.558;2023-03-05T18:42:16;99033.55;;;2.43;43.92
78839;BME280;68405;47.190;27.558;2023-03-05T18:44:48;99036.38;;;2.39;43.75
78839;BME280;68405;47.190;27.558;2023-03-05T18:47:19;99032.96;;;2.37;43.74
78839;BME280;68405;47.190;27.558;2023-03-05T18:49:51;99031.75;;;2.38;43.98
78839;BME280;68405;47.190;27.558;2023-03-05T18:52:23;99028.50;;;2.38;44.15
78839;BME280;68405;47.190;27.558;2023-03-05T18:54:55;99032.27;;;2.38;43.96
78839;BME280;68405;47.190;27.558;2023-03-05T18:57:27;99034.67;;;2.38;44.19
78839;BME280;68405;47.190;27.558;2023-03-05T18:59:58;99039.86;;;2.34;44.03
78839;BME280;68405;47.190;27.558;2023-03-05T19:02:30;99035.62;;;2.31;43.98
78839;BME280;68405;47.190;27.558;2023-03-05T19:05:04;99031.47;;;2.34;44.49
78839;BME280;68405;47.190;27.558;2023-03-05T19:07:35;99030.02;;;2.40;44.78
78839;BME280;68405;47.190;27.558;2023-03-05T19:10:11;99031.48;;;2.44;44.46
78839;BME280;68405;47.190;27.558;2023-03-05T19:13:24;99029.20;;;2.48;44.65
78839;BME280;68405;47.190;27.558;2023-03-05T19:16:11;99029.86;;;2.50;44.32
78839;BME280;68405;47.190;27.558;2023-03-05T19:18:54;99030.19;;;2.51;44.64
78839;BME280;68405;47.190;27.558;2023-03-05T19:21:40;99036.14;;;2.54;44.26
78839;BME280;68405;47.190;27.558;2023-03-05T19:24:11;99034.22;;;2.56;44.04
78839;BME280;68405;47.190;27.558;2023-03-05T19:26:44;99032.69;;;2.55;44.21
78839;BME280;68405;47.190;27.558;2023-03-05T19:29:16;99034.95;;;2.53;44.05
78839;BME280;68405;47.190;27.558;2023-03-05T19:31:49;99033.08;;;2.52;44.63
78839;BME280;68405;47.190;27.558;2023-03-05T19:34:20;99036.95;;;2.56;44.41
78839;BME280;68405;47.190;27.558;2023-03-05T19:36:52;99032.34;;;2.56;44.09
78839;BME280;68405;47.190;27.558;2023-03-05T19:39:23;99034.05;;;2.57;44.67
78839;BME280;68405;47.190;27.558;2023-03-05T19:41:55;99036.48;;;2.54;44.55
78839;BME280;68405;47.190;27.558;2023-03-05T19:44:27;99032.41;;;2.51;44.51
78839;BME280;68405;47.190;27.558;2023-03-05T19:46:59;99031.39;;;2.50;45.07
78839;BME280;68405;47.190;27.558;2023-03-05T19:49:31;99028.80;;;2.52;45.20
78839;BME280;68405;47.190;27.558;2023-03-05T19:52:02;99030.96;;;2.56;46.21
78839;BME280;68405;47.190;27.558;2023-03-05T19:54:35;99028.02;;;2.59;45.55
78839;BME280;68405;47.190;27.558;2023-03-05T19:57:07;99022.17;;;2.59;45.46
78839;BME280;68405;47.190;27.558;2023-03-05T19:59:38;99016.36;;;2.59;45.27
78839;BME280;68405;47.190;27.558;2023-03-05T20:02:11;99013.31;;;2.56;45.47
78839;BME280;68405;47.190;27.558;2023-03-05T20:04:46;99015.90;;;2.55;45.68
78839;BME280;68405;47.190;27.558;2023-03-05T20:07:18;99013.83;;;2.55;46.32
78839;BME280;68405;47.190;27.558;2023-03-05T20:09:50;99012.27;;;2.57;46.33
78839;BME280;68405;47.190;27.558;2023-03-05T20:12:24;99009.35;;;2.57;45.66
78839;BME280;68405;47.190;27.558;2023-03-05T20:14:56;99010.73;;;2.56;46.25
78839;BME280;68405;47.190;27.558;2023-03-05T20:17:27;99009.92;;;2.54;45.86
78839;BME280;68405;47.190;27.558;2023-03-05T20:19:59;99006.68;;;2.53;45.78
78839;BME280;68405;47.190;27.558;2023-03-05T20:22:31;99007.42;;;2.48;46.08
78839;BME280;68405;47.190;27.558;2023-03-05T20:25:02;99008.77;;;2.51;46.84
78839;BME280;68405;47.190;27.558;2023-03-05T20:27:35;99009.30;;;2.50;46.13
78839;BME280;68405;47.190;27.558;2023-03-05T20:30:14;99009.71;;;2.45;45.87
78839;BME280;68405;47.190;27.558;2023-03-05T20:32:47;99011.36;;;2.38;45.95
78839;BME280;68405;47.190;27.558;2023-03-05T20:35:18;99009.55;;;2.33;46.04
78839;BME280;68405;47.190;27.558;2023-03-05T20:38:16;99009.63;;;2.28;46.37
78839;BME280;68405;47.190;27.558;2023-03-05T20:40:56;99009.67;;;2.25;46.51
78839;BME280;68405;47.190;27.558;2023-03-05T20:43:30;99006.45;;;2.23;46.69
78839;BME280;68405;47.190;27.558;2023-03-05T20:46:02;99008.34;;;2.22;46.09
78839;BME280;68405;47.190;27.558;2023-03-05T20:48:34;99009.39;;;2.20;46.17
78839;BME280;68405;47.190;27.558;2023-03-05T20:51:14;99007.35;;;2.20;46.59
78839;BME280;68405;47.190;27.558;2023-03-05T20:53:46;99006.27;;;2.23;46.47
78839;BME280;68405;47.190;27.558;2023-03-05T20:56:17;99008.51;;;2.23;46.65
78839;BME280;68405;47.190;27.558;2023-03-05T20:58:49;99007.80;;;2.24;46.46
78839;BME280;68405;47.190;27.558;2023-03-05T21:01:21;99009.65;;;2.25;46.62
78839;BME280;68405;47.190;27.558;2023-03-05T21:03:53;99009.33;;;2.25;46.65
78839;BME280;68405;47.190;27.558;2023-03-05T21:06:27;99006.94;;;2.24;46.99
78839;BME280;68405;47.190;27.558;2023-03-05T21:08:59;99004.88;;;2.24;47.22
78839;BME280;68405;47.190;27.558;2023-03-05T21:11:31;99003.30;;;2.28;47.43
78839;BME280;68405;47.190;27.558;2023-03-05T21:14:04;98999.52;;;2.28;47.31
78839;BME280;68405;47.190;27.558;2023-03-05T21:16:36;98998.44;;;2.31;47.51
78839;BME280;68405;47.190;27.558;2023-03-05T21:19:08;98996.86;;;2.34;47.45
78839;BME280;68405;47.190;27.558;2023-03-05T21:21:40;98994.98;;;2.34;47.59
78839;BME280;68405;47.190;27.558;2023-03-05T21:24:39;98990.00;;;2.34;47.53
78839;BME280;68405;47.190;27.558;2023-03-05T21:27:30;98987.73;;;2.37;47.94
78839;BME280;68405;47.190;27.558;2023-03-05T21:30:02;98986.52;;;2.37;47.90
78839;BME280;68405;47.190;27.558;2023-03-05T21:32:35;98982.77;;;2.37;48.09
78839;BME280;68405;47.190;27.558;2023-03-05T21:35:10;98975.88;;;2.39;47.98
78839;BME280;68405;47.190;27.558;2023-03-05T21:37:43;98972.46;;;2.38;48.08
78839;BME280;68405;47.190;27.558;2023-03-05T21:40:17;98973.71;;;2.35;48.06
78839;BME280;68405;47.190;27.558;2023-03-05T21:42:50;98974.48;;;2.30;48.20
78839;BME280;68405;47.190;27.558;2023-03-05T21:45:23;98972.14;;;2.26;48.42
78839;BME280;68405;47.190;27.558;2023-03-05T21:47:56;98970.43;;;2.26;48.28
78839;BME280;68405;47.190;27.558;2023-03-05T21:50:29;98969.91;;;2.25;48.47
78839;BME280;68405;47.190;27.558;2023-03-05T21:53:03;98968.22;;;2.24;48.56
78839;BME280;68405;47.190;27.558;2023-03-05T21:56:04;98962.42;;;2.23;48.53
78839;BME280;68405;47.190;27.558;2023-03-05T21:58:51;98962.41;;;2.24;48.94
78839;BME280;68405;47.190;27.558;2023-03-05T22:01:23;98961.36;;;2.25;48.63
78839;BME280;68405;47.190;27.558;2023-03-05T22:03:55;98960.36;;;2.23;48.83
78839;BME280;68405;47.190;27.558;2023-03-05T22:06:26;98959.16;;;2.23;48.99
78839;BME280;68405;47.190;27.558;2023-03-05T22:08:58;98956.60;;;2.22;48.95
78839;BME280;68405;47.190;27.558;2023-03-05T22:11:30;98954.73;;;2.21;49.08
78839;BME280;68405;47.190;27.558;2023-03-05T22:14:02;98954.40;;;2.20;48.81
78839;BME280;68405;47.190;27.558;2023-03-05T22:16:34;98957.80;;;2.22;48.86
78839;BME280;68405;47.190;27.558;2023-03-05T22:19:06;98962.38;;;2.25;48.92
78839;BME280;68405;47.190;27.558;2023-03-05T22:21:38;98952.42;;;2.26;48.86
78839;BME280;68405;47.190;27.558;2023-03-05T22:24:10;98947.77;;;2.29;48.81
78839;BME280;68405;47.190;27.558;2023-03-05T22:26:42;98951.16;;;2.31;48.82
78839;BME280;68405;47.190;27.558;2023-03-05T22:29:14;98946.04;;;2.30;48.99
78839;BME280;68405;47.190;27.558;2023-03-05T22:31:46;98936.48;;;2.28;48.89
78839;BME280;68405;47.190;27.558;2023-03-05T22:34:18;98930.50;;;2.26;49.24
78839;BME280;68405;47.190;27.558;2023-03-05T22:36:50;98924.86;;;2.25;49.15
78839;BME280;68405;47.190;27.558;2023-03-05T22:39:21;98930.54;;;2.24;49.30
78839;BME280;68405;47.190;27.558;2023-03-05T22:41:53;98931.23;;;2.23;48.90
78839;BME280;68405;47.190;27.558;2023-03-05T22:44:25;98932.77;;;2.23;48.87
78839;BME280;68405;47.190;27.558;2023-03-05T22:46:57;98935.15;;;2.24;48.98
78839;BME280;68405;47.190;27.558;2023-03-05T22:49:28;98936.52;;;2.24;48.88
78839;BME280;68405;47.190;27.558;2023-03-05T22:52:00;98939.06;;;2.25;48.82
78839;BME280;68405;47.190;27.558;2023-03-05T22:54:32;98938.90;;;2.27;48.86
78839;BME280;68405;47.190;27.558;2023-03-05T22:57:04;98936.65;;;2.27;48.63
78839;BME280;68405;47.190;27.558;2023-03-05T22:59:35;98939.02;;;2.29;49.07
78839;BME280;68405;47.190;27.558;2023-03-05T23:02:07;98940.36;;;2.31;49.06
78839;BME280;68405;47.190;27.558;2023-03-05T23:04:45;98941.37;;;2.33;49.08
78839;BME280;68405;47.190;27.558;2023-03-05T23:07:24;98944.61;;;2.34;49.03
78839;BME280;68405;47.190;27.558;2023-03-05T23:10:01;98949.75;;;2.33;49.08
78839;BME280;68405;47.190;27.558;2023-03-05T23:12:35;98951.81;;;2.33;49.00
78839;BME280;68405;47.190;27.558;2023-03-05T23:15:09;98950.77;;;2.33;49.29
78839;BME280;68405;47.190;27.558;2023-03-05T23:17:41;98954.05;;;2.32;48.92
78839;BME280;68405;47.190;27.558;2023-03-05T23:20:14;98956.27;;;2.32;49.16
78839;BME280;68405;47.190;27.558;2023-03-05T23:22:46;98956.42;;;2.34;49.01
78839;BME280;68405;47.190;27.558;2023-03-05T23:25:18;98960.40;;;2.32;48.72
78839;BME280;68405;47.190;27.558;2023-03-05T23:27:51;98955.80;;;2.30;48.83
78839;BME280;68405;47.190;27.558;2023-03-05T23:30:24;98960.09;;;2.30;49.17
78839;BME280;68405;47.190;27.558;2023-03-05T23:32:57;98956.31;;;2.30;49.04
78839;BME280;68405;47.190;27.558;2023-03-05T23:35:31;98954.90;;;2.33;48.98
78839;BME280;68405;47.190;27.558;2023-03-05T23:38:05;98957.44;;;2.35;48.87
78839;BME280;68405;47.190;27.558;2023-03-05T23:40:39;98952.59;;;2.38;48.80
78839;BME280;68405;47.190;27.558;2023-03-05T23:43:11;98952.52;;;2.41;48.91
78839;BME280;68405;47.190;27.558;2023-03-05T23:45:44;98953.17;;;2.44;48.89
78839;BME280;68405;47.190;27.558;2023-03-05T23:48:17;98951.43;;;2.46;48.73
78839;BME280;68405;47.190;27.558;2023-03-05T23:50:49;98955.36;;;2.47;48.79
78839;BME280;68405;47.190;27.558;2023-03-05T23:53:23;98954.17;;;2.46;48.89
78839;BME280;68405;47.190;27.558;2023-03-05T23:55:55;98954.86;;;2.46;48.72
78839;BME280;68405;47.190;27.558;2023-03-05T23:58:27;98956.53;;;2.48;49.02
